Terminal Aerodrome Forecast
Issued by NWS Blacksburg, VA

Current Version | Previous Version | Text Only | Print | Product List | Glossary Off
Versions: 1 2 3 4 5 6 7 8 9 10 11 12 13 14 15 16 17 18 19 20 21 22 23 24 25 26 27

000
FTUS41 KRNK 270540
TAFBLF
TAF
KBLF 270540Z 2706/2806 20010KT P6SM -RA BKN050 OVC120
     FM270800 24007KT P6SM SCT050 OVC120
     FM271400 26008KT P6SM SCT025 BKN060
     FM272200 25007KT P6SM SCT070 BKN250=

USA.gov is the U.S. government's official web portal to all federal, state and local government web resources and services.